sensor_id;sensor_type;location;lat;lon;timestamp;pressure;altitude;pressure_sealevel;temperature;humidity
16120;BME280;12670;53.502;10.252;2023-03-16T00:00:31;101651.13;;;2.04;93.90
16120;BME280;12670;53.502;10.252;2023-03-16T00:03:34;101647.63;;;2.04;94.10
16120;BME280;12670;53.502;10.252;2023-03-16T00:07:05;101651.13;;;2.00;94.08
16120;BME280;12670;53.502;10.252;2023-03-16T00:10:10;101655.50;;;2.04;94.11
16120;BME280;12670;53.502;10.252;2023-03-16T00:13:15;101658.94;;;1.97;94.72
16120;BME280;12670;53.502;10.252;2023-03-16T00:16:19;101657.13;;;1.93;94.78
16120;BME280;12670;53.502;10.252;2023-03-16T00:19:21;101658.06;;;1.96;94.74
16120;BME280;12670;53.502;10.252;2023-03-16T00:22:25;101669.44;;;2.00;94.40
16120;BME280;12670;53.502;10.252;2023-03-16T00:25:28;101662.56;;;2.14;94.17
16120;BME280;12670;53.502;10.252;2023-03-16T00:28:35;101666.00;;;2.07;94.84
16120;BME280;12670;53.502;10.252;2023-03-16T00:31:38;101672.06;;;2.04;95.35
16120;BME280;12670;53.502;10.252;2023-03-16T00:34:45;101673.72;;;1.93;95.84
16120;BME280;12670;53.502;10.252;2023-03-16T00:37:48;101670.31;;;2.02;95.64
16120;BME280;12670;53.502;10.252;2023-03-16T00:40:51;101674.69;;;2.03;95.74
16120;BME280;12670;53.502;10.252;2023-03-16T00:43:55;101669.50;;;2.06;96.63
16120;BME280;12670;53.502;10.252;2023-03-16T00:46:57;101668.63;;;2.08;96.24
16120;BME280;12670;53.502;10.252;2023-03-16T00:50:00;101667.75;;;2.08;96.88
16120;BME280;12670;53.502;10.252;2023-03-16T00:53:03;101666.00;;;2.07;96.80
16120;BME280;12670;53.502;10.252;2023-03-16T00:56:07;101666.06;;;2.16;96.19
16120;BME280;12670;53.502;10.252;2023-03-16T00:59:11;101666.91;;;2.12;96.42
16120;BME280;12670;53.502;10.252;2023-03-16T01:02:16;101661.63;;;2.06;96.98
16120;BME280;12670;53.502;10.252;2023-03-16T01:05:20;101662.50;;;2.09;96.46
16120;BME280;12670;53.502;10.252;2023-03-16T01:08:22;101664.25;;;2.06;96.21
16120;BME280;12670;53.502;10.252;2023-03-16T01:11:25;101665.91;;;1.95;96.46
16120;BME280;12670;53.502;10.252;2023-03-16T01:14:29;101669.41;;;1.97;97.11
16120;BME280;12670;53.502;10.252;2023-03-16T01:17:32;101658.97;;;2.00;96.56
16120;BME280;12670;53.502;10.252;2023-03-16T01:20:35;101663.28;;;1.95;96.69
16120;BME280;12670;53.502;10.252;2023-03-16T01:23:39;101654.50;;;1.88;96.72
16120;BME280;12670;53.502;10.252;2023-03-16T01:26:41;101647.50;;;1.84;96.83
16120;BME280;12670;53.502;10.252;2023-03-16T01:29:46;101644.91;;;1.89;96.61
16120;BME280;12670;53.502;10.252;2023-03-16T01:32:49;101644.03;;;1.88;96.57
16120;BME280;12670;53.502;10.252;2023-03-16T01:35:52;101644.81;;;1.76;97.12
16120;BME280;12670;53.502;10.252;2023-03-16T01:38:55;101646.47;;;1.68;97.18
16120;BME280;12670;53.502;10.252;2023-03-16T01:41:58;101641.16;;;1.59;97.09
16120;BME280;12670;53.502;10.252;2023-03-16T01:45:02;101644.69;;;1.64;97.75
16120;BME280;12670;53.502;10.252;2023-03-16T01:48:06;101641.06;;;1.50;97.92
16120;BME280;12670;53.502;10.252;2023-03-16T01:51:13;101642.91;;;1.60;97.82
16120;BME280;12670;53.502;10.252;2023-03-16T01:54:21;101643.56;;;1.39;98.41
16120;BME280;12670;53.502;10.252;2023-03-16T01:57:27;101643.56;;;1.36;97.96
16120;BME280;12670;53.502;10.252;2023-03-16T02:00:34;101641.06;;;1.50;97.95
16120;BME280;12670;53.502;10.252;2023-03-16T02:03:37;101648.09;;;1.54;97.09
16120;BME280;12670;53.502;10.252;2023-03-16T02:06:41;101642.75;;;1.42;97.52
16120;BME280;12670;53.502;10.252;2023-03-16T02:09:47;101641.78;;;1.33;97.70
16120;BME280;12670;53.502;10.252;2023-03-16T02:12:52;101650.47;;;1.31;98.20
16120;BME280;12670;53.502;10.252;2023-03-16T02:15:56;101640.75;;;1.21;98.26
16120;BME280;12670;53.502;10.252;2023-03-16T02:18:59;101639.84;;;1.17;98.75
16120;BME280;12670;53.502;10.252;2023-03-16T02:22:05;101640.81;;;1.25;98.79
16120;BME280;12670;53.502;10.252;2023-03-16T02:25:09;101639.09;;;1.29;97.68
16120;BME280;12670;53.502;10.252;2023-03-16T02:28:17;101648.63;;;1.22;98.33
16120;BME280;12670;53.502;10.252;2023-03-16T02:31:23;101640.03;;;1.32;98.04
16120;BME280;12670;53.502;10.252;2023-03-16T02:34:26;101644.25;;;1.21;98.44
16120;BME280;12670;53.502;10.252;2023-03-16T02:37:30;101630.44;;;1.33;98.33
16120;BME280;12670;53.502;10.252;2023-03-16T02:40:34;101631.22;;;1.24;98.66
16120;BME280;12670;53.502;10.252;2023-03-16T02:43:41;101626.94;;;1.29;98.56
16120;BME280;12670;53.502;10.252;2023-03-16T02:46:46;101620.78;;;1.27;98.58
16120;BME280;12670;53.502;10.252;2023-03-16T02:49:49;101618.16;;;1.24;98.20
16120;BME280;12670;53.502;10.252;2023-03-16T02:52:52;101621.72;;;1.32;98.46
16120;BME280;12670;53.502;10.252;2023-03-16T02:55:55;101623.34;;;1.20;98.61
16120;BME280;12670;53.502;10.252;2023-03-16T02:58:58;101620.78;;;1.24;98.70
16120;BME280;12670;53.502;10.252;2023-03-16T03:02:02;101621.53;;;1.17;98.86
16120;BME280;12670;53.502;10.252;2023-03-16T03:05:05;101625.09;;;1.22;98.95
16120;BME280;12670;53.502;10.252;2023-03-16T03:08:08;101624.97;;;1.10;99.48
16120;BME280;12670;53.502;10.252;2023-03-16T03:11:10;101624.22;;;1.20;98.86
16120;BME280;12670;53.502;10.252;2023-03-16T03:14:13;101625.09;;;1.22;99.21
16120;BME280;12670;53.502;10.252;2023-03-16T03:17:18;101623.44;;;1.30;98.73
16120;BME280;12670;53.502;10.252;2023-03-16T03:20:21;101620.59;;;1.09;98.93
16120;BME280;12670;53.502;10.252;2023-03-16T03:23:23;101624.94;;;1.09;99.06
16120;BME280;12670;53.502;10.252;2023-03-16T03:26:26;101642.56;;;1.26;98.35
16120;BME280;12670;53.502;10.252;2023-03-16T03:29:29;101645.19;;;1.25;98.50
16120;BME280;12670;53.502;10.252;2023-03-16T03:32:36;101649.41;;;1.12;98.78
16120;BME280;12670;53.502;10.252;2023-03-16T03:35:39;101642.38;;;1.11;98.73
16120;BME280;12670;53.502;10.252;2023-03-16T03:38:42;101637.00;;;0.96;99.17
16120;BME280;12670;53.502;10.252;2023-03-16T03:41:45;101640.56;;;1.04;99.39
16120;BME280;12670;53.502;10.252;2023-03-16T03:44:48;101635.41;;;1.10;98.76
16120;BME280;12670;53.502;10.252;2023-03-16T03:47:52;101636.28;;;1.11;98.46
16120;BME280;12670;53.502;10.252;2023-03-16T03:50:56;101635.28;;;0.98;98.55
16120;BME280;12670;53.502;10.252;2023-03-16T03:53:59;101630.03;;;0.95;99.06
16120;BME280;12670;53.502;10.252;2023-03-16T03:57:02;101635.47;;;1.12;98.87
16120;BME280;12670;53.502;10.252;2023-03-16T04:00:07;101641.56;;;1.14;98.51
16120;BME280;12670;53.502;10.252;2023-03-16T04:03:13;101642.31;;;1.03;98.75
16120;BME280;12670;53.502;10.252;2023-03-16T04:06:16;101638.13;;;1.18;98.82
16120;BME280;12670;53.502;10.252;2023-03-16T04:09:19;101639.75;;;1.10;98.14
16120;BME280;12670;53.502;10.252;2023-03-16T04:12:22;101632.84;;;1.15;98.38
16120;BME280;12670;53.502;10.252;2023-03-16T04:15:25;101634.78;;;1.31;97.59
16120;BME280;12670;53.502;10.252;2023-03-16T04:18:30;101632.97;;;1.25;97.35
16120;BME280;12670;53.502;10.252;2023-03-16T04:21:39;101638.28;;;1.33;97.51
16120;BME280;12670;53.502;10.252;2023-03-16T04:24:41;101639.13;;;1.30;97.12
16120;BME280;12670;53.502;10.252;2023-03-16T04:27:44;101640.06;;;1.37;97.28
16120;BME280;12670;53.502;10.252;2023-03-16T04:30:47;101639.09;;;1.26;97.18
16120;BME280;12670;53.502;10.252;2023-03-16T04:33:51;101628.56;;;1.21;97.66
16120;BME280;12670;53.502;10.252;2023-03-16T04:36:55;101622.53;;;1.27;97.16
16120;BME280;12670;53.502;10.252;2023-03-16T04:39:57;101626.94;;;1.31;97.17
16120;BME280;12670;53.502;10.252;2023-03-16T04:43:00;101626.13;;;1.40;96.47
16120;BME280;12670;53.502;10.252;2023-03-16T04:46:03;101626.06;;;1.30;96.57
16120;BME280;12670;53.502;10.252;2023-03-16T04:49:08;101625.28;;;1.41;96.50
16120;BME280;12670;53.502;10.252;2023-03-16T04:52:11;101635.66;;;1.34;96.26
16120;BME280;12670;53.502;10.252;2023-03-16T04:55:14;101643.50;;;1.30;96.65
16120;BME280;12670;53.502;10.252;2023-03-16T04:58:16;101631.19;;;1.23;96.73
16120;BME280;12670;53.502;10.252;2023-03-16T05:01:19;101628.63;;;1.24;97.29
16120;BME280;12670;53.502;10.252;2023-03-16T05:04:23;101632.16;;;1.29;96.90
16120;BME280;12670;53.502;10.252;2023-03-16T05:07:26;101630.44;;;1.34;96.67
16120;BME280;12670;53.502;10.252;2023-03-16T05:10:29;101632.19;;;1.32;96.58
16120;BME280;12670;53.502;10.252;2023-03-16T05:13:31;101629.50;;;1.26;96.76
16120;BME280;12670;53.502;10.252;2023-03-16T05:16:34;101621.84;;;1.45;96.59
16120;BME280;12670;53.502;10.252;2023-03-16T05:19:38;101623.63;;;1.49;95.67
16120;BME280;12670;53.502;10.252;2023-03-16T05:22:42;101621.13;;;1.61;95.01
16120;BME280;12670;53.502;10.252;2023-03-16T05:25:46;101607.22;;;1.70;94.90
16120;BME280;12670;53.502;10.252;2023-03-16T05:28:48;101615.22;;;1.83;94.27
16120;BME280;12670;53.502;10.252;2023-03-16T05:31:51;101617.00;;;1.92;93.52
16120;BME280;12670;53.502;10.252;2023-03-16T05:34:55;101617.06;;;1.94;93.73
16120;BME280;12670;53.502;10.252;2023-03-16T05:37:58;101607.47;;;1.97;93.59
16120;BME280;12670;53.502;10.252;2023-03-16T05:41:01;101616.03;;;1.78;92.39
16120;BME280;12670;53.502;10.252;2023-03-16T05:44:06;101618.81;;;1.98;93.13
16120;BME280;12670;53.502;10.252;2023-03-16T05:47:09;101631.06;;;2.05;92.92
16120;BME280;12670;53.502;10.252;2023-03-16T05:50:14;101643.41;;;2.21;91.80
16120;BME280;12670;53.502;10.252;2023-03-16T05:53:18;101645.19;;;2.28;91.84
16120;BME280;12670;53.502;10.252;2023-03-16T05:56:22;101645.19;;;2.28;91.12
16120;BME280;12670;53.502;10.252;2023-03-16T05:59:25;101649.63;;;2.38;91.09
16120;BME280;12670;53.502;10.252;2023-03-16T06:02:27;101647.00;;;2.38;90.05
16120;BME280;12670;53.502;10.252;2023-03-16T06:05:31;101644.38;;;2.38;89.21
16120;BME280;12670;53.502;10.252;2023-03-16T06:08:34;101646.28;;;2.59;89.97
16120;BME280;12670;53.502;10.252;2023-03-16T06:11:36;101643.59;;;2.52;89.83
16120;BME280;12670;53.502;10.252;2023-03-16T06:14:39;101651.47;;;2.56;88.69
16120;BME280;12670;53.502;10.252;2023-03-16T06:17:42;101642.84;;;2.71;88.64
16120;BME280;12670;53.502;10.252;2023-03-16T06:20:46;101647.25;;;2.84;88.67
16120;BME280;12670;53.502;10.252;2023-03-16T06:23:49;101649.03;;;2.91;87.63
16120;BME280;12670;53.502;10.252;2023-03-16T06:26:52;101650.81;;;2.96;87.25
16120;BME280;12670;53.502;10.252;2023-03-16T06:29:54;101641.97;;;2.75;86.86
16120;BME280;12670;53.502;10.252;2023-03-16T06:32:57;101645.56;;;2.96;86.09
16120;BME280;12670;53.502;10.252;2023-03-16T06:36:02;101650.78;;;2.92;85.95
16120;BME280;12670;53.502;10.252;2023-03-16T06:39:04;101656.94;;;3.01;85.91
16120;BME280;12670;53.502;10.252;2023-03-16T06:42:07;101667.47;;;3.14;84.81
16120;BME280;12670;53.502;10.252;2023-03-16T06:45:10;101669.28;;;3.38;85.76
16120;BME280;12670;53.502;10.252;2023-03-16T06:48:13;101673.69;;;3.45;86.42
16120;BME280;12670;53.502;10.252;2023-03-16T06:51:17;101668.41;;;3.24;83.18
16120;BME280;12670;53.502;10.252;2023-03-16T06:54:20;101677.22;;;3.46;84.29
16120;BME280;12670;53.502;10.252;2023-03-16T06:57:22;101679.81;;;3.57;84.68
16120;BME280;12670;53.502;10.252;2023-03-16T07:00:25;101673.75;;;3.73;85.00
16120;BME280;12670;53.502;10.252;2023-03-16T07:03:28;101676.38;;;3.78;83.05
16120;BME280;12670;53.502;10.252;2023-03-16T07:06:33;101672.00;;;3.84;82.93
16120;BME280;12670;53.502;10.252;2023-03-16T07:09:35;101678.09;;;3.74;82.97
16120;BME280;12670;53.502;10.252;2023-03-16T07:12:41;101673.75;;;3.79;83.51
16120;BME280;12670;53.502;10.252;2023-03-16T07:15:44;101672.03;;;3.87;83.27
16120;BME280;12670;53.502;10.252;2023-03-16T07:18:47;101673.75;;;3.79;82.76
16120;BME280;12670;53.502;10.252;2023-03-16T07:21:51;101684.25;;;3.91;83.07
16120;BME280;12670;53.502;10.252;2023-03-16T07:24:53;101685.16;;;3.87;81.35
16120;BME280;12670;53.502;10.252;2023-03-16T07:27:57;101680.75;;;3.92;82.62
16120;BME280;12670;53.502;10.252;2023-03-16T07:31:00;101679.00;;;3.97;81.90
16120;BME280;12670;53.502;10.252;2023-03-16T07:34:05;101690.41;;;4.16;81.36
16120;BME280;12670;53.502;10.252;2023-03-16T07:37:09;101673.75;;;4.28;81.26
16120;BME280;12670;53.502;10.252;2023-03-16T07:40:13;101684.25;;;4.37;78.21
16120;BME280;12670;53.502;10.252;2023-03-16T07:43:15;101679.88;;;4.47;79.49
16120;BME280;12670;53.502;10.252;2023-03-16T07:46:18;101680.72;;;4.50;78.02
16120;BME280;12670;53.502;10.252;2023-03-16T07:49:21;101685.13;;;3.92;77.18
16120;BME280;12670;53.502;10.252;2023-03-16T07:52:25;101688.63;;;4.32;80.06
16120;BME280;12670;53.502;10.252;2023-03-16T07:55:28;101687.75;;;4.30;79.06
16120;BME280;12670;53.502;10.252;2023-03-16T07:58:32;101686.84;;;4.43;79.79
16120;BME280;12670;53.502;10.252;2023-03-16T08:01:35;101691.22;;;4.55;76.81
16120;BME280;12670;53.502;10.252;2023-03-16T08:04:38;101685.13;;;4.41;76.73
16120;BME280;12670;53.502;10.252;2023-03-16T08:07:44;101698.22;;;4.59;77.30
16120;BME280;12670;53.502;10.252;2023-03-16T08:10:47;101695.50;;;4.91;76.13
16120;BME280;12670;53.502;10.252;2023-03-16T08:13:50;101700.78;;;4.94;75.14
16120;BME280;12670;53.502;10.252;2023-03-16T08:16:54;101690.19;;;5.09;75.26
16120;BME280;12670;53.502;10.252;2023-03-16T08:19:57;101695.41;;;5.16;74.72
16120;BME280;12670;53.502;10.252;2023-03-16T08:23:01;101691.81;;;5.41;74.55
16120;BME280;12670;53.502;10.252;2023-03-16T08:26:04;101689.03;;;5.66;72.18
16120;BME280;12670;53.502;10.252;2023-03-16T08:29:09;101702.19;;;5.64;69.15
16120;BME280;12670;53.502;10.252;2023-03-16T08:32:11;101701.13;;;5.97;72.18
16120;BME280;12670;53.502;10.252;2023-03-16T08:35:14;101696.78;;;5.87;70.82
16120;BME280;12670;53.502;10.252;2023-03-16T08:38:19;101693.25;;;5.94;71.00
16120;BME280;12670;53.502;10.252;2023-03-16T08:41:22;101691.66;;;5.62;70.05
16120;BME280;12670;53.502;10.252;2023-03-16T08:44:24;101683.59;;;5.92;70.73
16120;BME280;12670;53.502;10.252;2023-03-16T08:47:27;101694.03;;;6.05;70.49
16120;BME280;12670;53.502;10.252;2023-03-16T08:50:31;101683.28;;;6.31;69.78
16120;BME280;12670;53.502;10.252;2023-03-16T08:53:35;101684.19;;;6.29;72.04
16120;BME280;12670;53.502;10.252;2023-03-16T08:56:38;101683.97;;;6.50;68.45
16120;BME280;12670;53.502;10.252;2023-03-16T08:59:40;101686.72;;;6.38;67.34
16120;BME280;12670;53.502;10.252;2023-03-16T09:02:46;101689.88;;;6.74;72.44
16120;BME280;12670;53.502;10.252;2023-03-16T09:05:48;101684.22;;;7.07;67.99
16120;BME280;12670;53.502;10.252;2023-03-16T09:08:53;101691.13;;;7.17;66.81
16120;BME280;12670;53.502;10.252;2023-03-16T09:11:56;101687.41;;;7.32;66.90
16120;BME280;12670;53.502;10.252;2023-03-16T09:14:59;101683.00;;;7.33;67.24
16120;BME280;12670;53.502;10.252;2023-03-16T09:18:02;101679.66;;;7.20;63.13
16120;BME280;12670;53.502;10.252;2023-03-16T09:21:08;101681.13;;;7.42;65.26
16120;BME280;12670;53.502;10.252;2023-03-16T09:24:12;101669.88;;;7.88;64.68
16120;BME280;12670;53.502;10.252;2023-03-16T09:27:15;101667.56;;;8.22;60.30
16120;BME280;12670;53.502;10.252;2023-03-16T09:30:17;101672.47;;;8.45;64.76
16120;BME280;12670;53.502;10.252;2023-03-16T09:33:21;101666.53;;;8.80;60.39
16120;BME280;12670;53.502;10.252;2023-03-16T09:36:24;101659.06;;;8.56;57.10
16120;BME280;12670;53.502;10.252;2023-03-16T09:39:29;101662.34;;;9.12;57.60
16120;BME280;12670;53.502;10.252;2023-03-16T09:42:34;101653.34;;;9.21;59.44
16120;BME280;12670;53.502;10.252;2023-03-16T09:45:42;101647.59;;;9.41;57.24
16120;BME280;12670;53.502;10.252;2023-03-16T09:48:49;101655.13;;;9.59;55.28
16120;BME280;12670;53.502;10.252;2023-03-16T09:51:54;101643.53;;;9.63;55.18
16120;BME280;12670;53.502;10.252;2023-03-16T09:55:05;101642.03;;;9.88;53.73
16120;BME280;12670;53.502;10.252;2023-03-16T09:58:14;101638.31;;;9.96;55.45
16120;BME280;12670;53.502;10.252;2023-03-16T10:01:22;101636.69;;;10.26;53.24
16120;BME280;12670;53.502;10.252;2023-03-16T10:04:38;101635.22;;;10.50;51.56
16120;BME280;12670;53.502;10.252;2023-03-16T10:07:51;101644.69;;;11.19;49.64
16120;BME280;12670;53.502;10.252;2023-03-16T10:11:18;101640.13;;;11.24;50.13
16120;BME280;12670;53.502;10.252;2023-03-16T10:14:29;101635.78;;;11.21;48.52
16120;BME280;12670;53.502;10.252;2023-03-16T10:17:37;101634.44;;;11.07;50.07
16120;BME280;12670;53.502;10.252;2023-03-16T10:20:40;101629.81;;;10.84;47.63
16120;BME280;12670;53.502;10.252;2023-03-16T10:23:47;101624.00;;;11.30;48.01
16120;BME280;12670;53.502;10.252;2023-03-16T10:26:55;101625.47;;;11.11;49.38
16120;BME280;12670;53.502;10.252;2023-03-16T10:30:02;101627.31;;;11.38;45.68
16120;BME280;12670;53.502;10.252;2023-03-16T10:33:16;101619.56;;;11.59;48.24
16120;BME280;12670;53.502;10.252;2023-03-16T10:36:24;101615.94;;;11.89;44.22
16120;BME280;12670;53.502;10.252;2023-03-16T10:39:35;101623.00;;;12.17;45.65
16120;BME280;12670;53.502;10.252;2023-03-16T10:42:44;101618.03;;;12.31;44.70
16120;BME280;12670;53.502;10.252;2023-03-16T10:45:47;101615.41;;;12.56;42.48
16120;BME280;12670;53.502;10.252;2023-03-16T10:48:51;101622.19;;;12.88;41.72
16120;BME280;12670;53.502;10.252;2023-03-16T10:51:56;101618.03;;;13.04;41.25
16120;BME280;12670;53.502;10.252;2023-03-16T10:55:05;101595.81;;;13.73;40.69
16120;BME280;12670;53.502;10.252;2023-03-16T10:58:21;101592.31;;;14.33;41.32
16120;BME280;12670;53.502;10.252;2023-03-16T11:01:27;101594.75;;;14.19;37.65
16120;BME280;12670;53.502;10.252;2023-03-16T11:04:30;101594.44;;;13.63;34.21
16120;BME280;12670;53.502;10.252;2023-03-16T11:07:34;101580.53;;;12.14;33.38
16120;BME280;12670;53.502;10.252;2023-03-16T11:10:39;101583.66;;;12.25;36.40
16120;BME280;12670;53.502;10.252;2023-03-16T11:13:58;101582.34;;;11.87;36.02
16120;BME280;12670;53.502;10.252;2023-03-16T11:17:04;101579.63;;;12.15;36.37
16120;BME280;12670;53.502;10.252;2023-03-16T11:20:13;101586.91;;;12.58;36.61
16120;BME280;12670;53.502;10.252;2023-03-16T11:23:20;101564.69;;;13.29;33.15
16120;BME280;12670;53.502;10.252;2023-03-16T11:26:32;101558.06;;;13.82;31.74
16120;BME280;12670;53.502;10.252;2023-03-16T11:29:43;101555.72;;;13.96;30.74
16120;BME280;12670;53.502;10.252;2023-03-16T11:32:50;101551.28;;;13.95;30.24
16120;BME280;12670;53.502;10.252;2023-03-16T11:36:00;101553.50;;;13.64;31.29
16120;BME280;12670;53.502;10.252;2023-03-16T11:39:20;101549.81;;;13.88;30.45
16120;BME280;12670;53.502;10.252;2023-03-16T11:42:29;101549.28;;;14.21;32.46
16120;BME280;12670;53.502;10.252;2023-03-16T11:45:40;101552.63;;;14.26;31.80
16120;BME280;12670;53.502;10.252;2023-03-16T11:48:58;101551.50;;;13.91;30.69
16120;BME280;12670;53.502;10.252;2023-03-16T11:52:08;101542.63;;;14.51;27.72
16120;BME280;12670;53.502;10.252;2023-03-16T11:55:21;101541.78;;;15.07;27.43
16120;BME280;12670;53.502;10.252;2023-03-16T11:58:35;101526.19;;;15.70;26.28
16120;BME280;12670;53.502;10.252;2023-03-16T12:01:53;101526.50;;;15.64;27.36
16120;BME280;12670;53.502;10.252;2023-03-16T12:05:20;101520.47;;;14.87;28.34
16120;BME280;12670;53.502;10.252;2023-03-16T12:08:43;101510.72;;;15.41;26.66
16120;BME280;12670;53.502;10.252;2023-03-16T12:11:53;101498.78;;;15.31;28.00
16120;BME280;12670;53.502;10.252;2023-03-16T12:15:09;101497.38;;;16.10;28.78
16120;BME280;12670;53.502;10.252;2023-03-16T12:18:24;101494.94;;;15.36;26.10
16120;BME280;12670;53.502;10.252;2023-03-16T12:21:31;101495.19;;;14.94;27.04
16120;BME280;12670;53.502;10.252;2023-03-16T12:24:40;101488.50;;;14.66;28.26
16120;BME280;12670;53.502;10.252;2023-03-16T12:27:44;101493.19;;;14.41;29.33
16120;BME280;12670;53.502;10.252;2023-03-16T12:30:55;101496.44;;;14.49;29.07
16120;BME280;12670;53.502;10.252;2023-03-16T12:34:07;101482.00;;;14.91;29.59
16120;BME280;12670;53.502;10.252;2023-03-16T12:37:17;101482.00;;;14.72;26.72
16120;BME280;12670;53.502;10.252;2023-03-16T12:40:32;101472.31;;;13.71;27.08
16120;BME280;12670;53.502;10.252;2023-03-16T12:43:48;101475.34;;;14.81;27.53
16120;BME280;12670;53.502;10.252;2023-03-16T12:46:56;101469.56;;;14.52;27.36
16120;BME280;12670;53.502;10.252;2023-03-16T12:50:07;101450.56;;;15.32;28.68
16120;BME280;12670;53.502;10.252;2023-03-16T12:53:24;101445.31;;;16.49;27.70
16120;BME280;12670;53.502;10.252;2023-03-16T12:56:29;101438.88;;;16.36;26.51
16120;BME280;12670;53.502;10.252;2023-03-16T12:59:37;101435.13;;;17.19;25.73
16120;BME280;12670;53.502;10.252;2023-03-16T13:02:44;101445.25;;;17.14;26.66
16120;BME280;12670;53.502;10.252;2023-03-16T13:05:54;101440.50;;;17.03;26.40
16120;BME280;12670;53.502;10.252;2023-03-16T13:08:59;101425.56;;;16.18;23.97
16120;BME280;12670;53.502;10.252;2023-03-16T13:12:02;101417.84;;;15.44;27.55
16120;BME280;12670;53.502;10.252;2023-03-16T13:15:23;101422.00;;;15.33;29.68
16120;BME280;12670;53.502;10.252;2023-03-16T13:18:33;101416.22;;;15.25;27.52
16120;BME280;12670;53.502;10.252;2023-03-16T13:21:40;101402.81;;;15.77;27.41
16120;BME280;12670;53.502;10.252;2023-03-16T13:24:49;101399.91;;;15.46;25.05
16120;BME280;12670;53.502;10.252;2023-03-16T13:27:53;101394.34;;;15.34;25.02
16120;BME280;12670;53.502;10.252;2023-03-16T13:30:57;101388.50;;;15.08;25.79
16120;BME280;12670;53.502;10.252;2023-03-16T13:33:59;101397.19;;;15.65;28.57
16120;BME280;12670;53.502;10.252;2023-03-16T13:37:12;101392.16;;;15.42;25.43
16120;BME280;12670;53.502;10.252;2023-03-16T13:40:18;101391.34;;;15.23;28.64
16120;BME280;12670;53.502;10.252;2023-03-16T13:43:23;101387.31;;;14.60;26.15
16120;BME280;12670;53.502;10.252;2023-03-16T13:46:28;101387.72;;;14.32;24.31
16120;BME280;12670;53.502;10.252;2023-03-16T13:49:32;101383.00;;;14.00;25.13
16120;BME280;12670;53.502;10.252;2023-03-16T13:52:36;101383.63;;;13.67;26.65
16120;BME280;12670;53.502;10.252;2023-03-16T13:55:39;101372.59;;;12.70;28.04
16120;BME280;12670;53.502;10.252;2023-03-16T13:58:44;101377.78;;;12.29;28.65
16120;BME280;12670;53.502;10.252;2023-03-16T14:01:54;101370.47;;;12.34;29.97
16120;BME280;12670;53.502;10.252;2023-03-16T14:05:08;101362.19;;;12.20;28.24
16120;BME280;12670;53.502;10.252;2023-03-16T14:08:16;101363.44;;;11.86;29.17
16120;BME280;12670;53.502;10.252;2023-03-16T14:11:19;101359.16;;;11.82;29.73
16120;BME280;12670;53.502;10.252;2023-03-16T14:14:25;101357.47;;;11.55;29.15
16120;BME280;12670;53.502;10.252;2023-03-16T14:17:29;101349.72;;;11.24;30.00
16120;BME280;12670;53.502;10.252;2023-03-16T14:20:32;101356.53;;;11.32;31.95
16120;BME280;12670;53.502;10.252;2023-03-16T14:23:44;101348.06;;;11.46;33.68
16120;BME280;12670;53.502;10.252;2023-03-16T14:26:47;101355.72;;;11.04;30.77
16120;BME280;12670;53.502;10.252;2023-03-16T14:29:53;101351.28;;;11.04;32.28
16120;BME280;12670;53.502;10.252;2023-03-16T14:32:59;101351.94;;;11.11;31.43
16120;BME280;12670;53.502;10.252;2023-03-16T14:36:09;101329.28;;;11.01;30.20
16120;BME280;12670;53.502;10.252;2023-03-16T14:39:19;101328.03;;;11.11;30.80
16120;BME280;12670;53.502;10.252;2023-03-16T14:42:26;101327.53;;;11.00;31.92
16120;BME280;12670;53.502;10.252;2023-03-16T14:45:32;101324.78;;;10.76;31.83
16120;BME280;12670;53.502;10.252;2023-03-16T14:48:36;101320.88;;;10.61;32.72
16120;BME280;12670;53.502;10.252;2023-03-16T14:51:39;101310.72;;;10.74;32.59
16120;BME280;12670;53.502;10.252;2023-03-16T14:54:43;101310.06;;;10.39;31.67
16120;BME280;12670;53.502;10.252;2023-03-16T14:57:47;101304.97;;;10.33;32.48
16120;BME280;12670;53.502;10.252;2023-03-16T15:00:52;101293.88;;;10.75;32.56
16120;BME280;12670;53.502;10.252;2023-03-16T15:03:55;101289.97;;;10.59;34.94
16120;BME280;12670;53.502;10.252;2023-03-16T15:06:58;101274.28;;;10.53;32.79
16120;BME280;12670;53.502;10.252;2023-03-16T15:10:06;101273.56;;;10.48;32.63
16120;BME280;12670;53.502;10.252;2023-03-16T15:13:13;101269.97;;;10.49;34.74
16120;BME280;12670;53.502;10.252;2023-03-16T15:16:24;101266.72;;;10.40;33.92
16120;BME280;12670;53.502;10.252;2023-03-16T15:19:28;101268.16;;;10.51;35.52
16120;BME280;12670;53.502;10.252;2023-03-16T15:22:32;101265.81;;;10.68;35.56
16120;BME280;12670;53.502;10.252;2023-03-16T15:25:40;101264.47;;;10.28;33.42
16120;BME280;12670;53.502;10.252;2023-03-16T15:28:43;101266.44;;;10.50;35.89
16120;BME280;12670;53.502;10.252;2023-03-16T15:31:46;101263.47;;;10.31;35.94
16120;BME280;12670;53.502;10.252;2023-03-16T15:34:49;101262.41;;;10.36;37.14
16120;BME280;12670;53.502;10.252;2023-03-16T15:37:51;101257.19;;;10.35;36.72
16120;BME280;12670;53.502;10.252;2023-03-16T15:40:55;101247.47;;;10.06;35.79
16120;BME280;12670;53.502;10.252;2023-03-16T15:43:58;101247.00;;;10.21;36.84
16120;BME280;12670;53.502;10.252;2023-03-16T15:47:03;101242.28;;;10.03;35.19
16120;BME280;12670;53.502;10.252;2023-03-16T15:50:08;101244.19;;;9.98;37.00
16120;BME280;12670;53.502;10.252;2023-03-16T15:53:14;101244.41;;;9.90;36.55
16120;BME280;12670;53.502;10.252;2023-03-16T15:56:34;101244.84;;;9.76;35.30
16120;BME280;12670;53.502;10.252;2023-03-16T15:59:51;101240.16;;;9.84;35.49
16120;BME280;12670;53.502;10.252;2023-03-16T16:02:56;101233.00;;;9.88;37.73